createdAt,value
2022-11-16T00:01:56.671Z,4.34
2022-11-16T00:04:24.633Z,4.42
2022-11-16T00:06:52.426Z,4.47
2022-11-16T00:09:22.965Z,4.51
2022-11-16T00:11:56.543Z,4.54
2022-11-16T00:14:30.258Z,4.51
2022-11-16T00:16:58.978Z,4.46
2022-11-16T00:19:27.645Z,4.50
2022-11-16T00:21:59.120Z,4.50
2022-11-16T00:24:26.648Z,4.51
2022-11-16T00:26:55.691Z,4.53
2022-11-16T00:29:26.277Z,4.50
2022-11-16T00:31:54.286Z,4.51
2022-11-16T00:34:23.627Z,4.48
2022-11-16T00:36:51.529Z,4.46
2022-11-16T00:39:20.336Z,4.46
2022-11-16T00:41:49.173Z,4.43
2022-11-16T00:44:18.408Z,4.40
2022-11-16T00:46:46.354Z,4.40
2022-11-16T00:49:14.552Z,4.36
2022-11-16T00:51:42.361Z,4.33
2022-11-16T00:54:10.319Z,4.32
2022-11-16T00:56:39.764Z,4.31
2022-11-16T00:59:07.723Z,4.30
2022-11-16T01:01:35.590Z,4.30
2022-11-16T01:04:03.666Z,4.29
2022-11-16T01:06:31.399Z,4.27
2022-11-16T01:09:01.206Z,4.26
2022-11-16T01:11:47.516Z,4.27
2022-11-16T01:14:15.616Z,4.27
2022-11-16T01:16:44.470Z,4.27
2022-11-16T01:19:12.064Z,4.27
2022-11-16T01:21:39.889Z,4.30
2022-11-16T01:24:07.557Z,4.35
2022-11-16T01:26:35.140Z,4.41
2022-11-16T01:29:03.182Z,4.47
2022-11-16T01:31:32.647Z,4.54
2022-11-16T01:34:01.722Z,4.58
2022-11-16T01:36:30.150Z,4.54
2022-11-16T01:38:59.791Z,4.56
2022-11-16T01:41:29.688Z,4.63
2022-11-16T01:44:04.584Z,4.70
2022-11-16T01:46:33.804Z,4.71
2022-11-16T01:49:18.893Z,4.72
2022-11-16T01:51:54.168Z,4.69
2022-11-16T01:54:29.715Z,4.71
2022-11-16T01:57:05.483Z,4.71
2022-11-16T01:59:34.820Z,4.66
2022-11-16T02:02:03.382Z,4.63
2022-11-16T02:04:31.788Z,4.57
2022-11-16T02:07:17.541Z,4.52
2022-11-16T02:10:13.115Z,4.48
2022-11-16T02:12:58.695Z,4.45
2022-11-16T02:15:44.877Z,4.40
2022-11-16T02:18:39.072Z,4.39
2022-11-16T02:21:40.872Z,4.39
2022-11-16T02:24:43.479Z,4.37
2022-11-16T02:27:34.741Z,4.33
2022-11-16T02:30:04.913Z,4.30
2022-11-16T02:32:49.704Z,4.31
2022-11-16T02:35:25.179Z,4.30
2022-11-16T02:38:07.978Z,4.29
2022-11-16T02:40:39.887Z,4.23
2022-11-16T02:43:11.130Z,4.21
2022-11-16T02:45:43.784Z,4.19
2022-11-16T02:48:16.912Z,4.16
2022-11-16T02:50:47.384Z,4.10
2022-11-16T02:53:15.330Z,4.06
2022-11-16T02:55:44.531Z,4.01
2022-11-16T02:58:15.687Z,4.00
2022-11-16T03:01:07.249Z,4.02
2022-11-16T03:03:42.711Z,4.05
2022-11-16T03:06:24.532Z,4.11
2022-11-16T03:09:03.859Z,4.19
2022-11-16T03:11:54.123Z,4.30
2022-11-16T03:14:30.689Z,4.42
2022-11-16T03:17:00.331Z,4.55
2022-11-16T03:19:45.293Z,4.66
2022-11-16T03:22:18.970Z,4.71
2022-11-16T03:24:47.246Z,4.74
2022-11-16T03:27:26.584Z,4.74
2022-11-16T03:30:04.421Z,4.74
2022-11-16T03:32:46.493Z,4.69
2022-11-16T03:35:30.520Z,4.61
2022-11-16T03:38:01.787Z,4.57
2022-11-16T03:40:33.647Z,4.51
2022-11-16T03:43:04.160Z,4.44
2022-11-16T03:45:32.148Z,4.42
2022-11-16T03:48:00.526Z,4.42
2022-11-16T03:50:28.120Z,4.40
2022-11-16T03:52:55.667Z,4.23
2022-11-16T03:55:24.186Z,4.08
2022-11-16T03:57:51.882Z,3.96
2022-11-16T04:00:19.762Z,3.92
2022-11-16T04:02:47.531Z,3.87
2022-11-16T04:05:35.542Z,3.84
2022-11-16T04:08:21.555Z,3.83
2022-11-16T04:11:08.415Z,3.79
2022-11-16T04:13:54.795Z,3.71
2022-11-16T04:16:41.234Z,3.61
2022-11-16T04:19:28.168Z,3.52
2022-11-16T04:22:31.686Z,3.45
2022-11-16T04:25:11.015Z,3.41
2022-11-16T04:27:57.186Z,3.38
2022-11-16T04:30:35.322Z,3.39
2022-11-16T04:33:21.516Z,3.40
2022-11-16T04:36:09.549Z,3.40
2022-11-16T04:38:36.922Z,3.41
2022-11-16T04:41:04.675Z,3.47
2022-11-16T04:43:32.255Z,3.53
2022-11-16T04:46:18.422Z,3.63
2022-11-16T04:48:46.116Z,3.72
2022-11-16T04:51:13.582Z,3.82
2022-11-16T04:53:41.196Z,3.92
2022-11-16T04:56:11.973Z,3.98
2022-11-16T04:58:39.814Z,4.00
2022-11-16T05:01:08.549Z,4.00
2022-11-16T05:03:36.884Z,3.97
2022-11-16T05:06:06.289Z,3.98
2022-11-16T05:08:34.629Z,4.00
2022-11-16T05:11:03.987Z,4.02
2022-11-16T05:13:31.817Z,4.04
2022-11-16T05:15:59.381Z,4.07
2022-11-16T05:18:27.085Z,4.03
2022-11-16T05:21:01.088Z,4.01
2022-11-16T05:23:48.901Z,4.00
2022-11-16T05:26:18.205Z,3.95
2022-11-16T05:28:46.494Z,3.85
2022-11-16T05:31:14.413Z,3.74
2022-11-16T05:33:42.067Z,3.65
2022-11-16T05:36:10.393Z,3.60
2022-11-16T05:38:37.917Z,3.58
2022-11-16T05:41:06.439Z,3.57
2022-11-16T05:43:34.221Z,3.57
2022-11-16T05:46:03.648Z,3.58
2022-11-16T05:48:31.695Z,3.59
2022-11-16T05:51:00.488Z,3.63
2022-11-16T05:53:29.730Z,3.65
2022-11-16T05:55:58.045Z,3.67
2022-11-16T05:58:25.560Z,3.70
2022-11-16T06:00:53.929Z,3.72
2022-11-16T06:03:22.387Z,3.73
2022-11-16T06:05:52.186Z,3.78
2022-11-16T06:08:19.930Z,3.82
2022-11-16T06:10:49.218Z,3.88
2022-11-16T06:13:17.154Z,3.97
2022-11-16T06:15:52.157Z,4.04
2022-11-16T06:18:20.474Z,4.06
2022-11-16T06:20:49.217Z,4.08
2022-11-16T06:23:17.716Z,4.18
2022-11-16T06:25:45.399Z,4.31
2022-11-16T06:28:13.250Z,4.45
2022-11-16T06:30:41.002Z,4.58
2022-11-16T06:33:09.386Z,4.69
2022-11-16T06:35:37.507Z,4.78
2022-11-16T06:38:05.498Z,4.86
2022-11-16T06:40:33.466Z,4.88
2022-11-16T06:43:02.049Z,4.92
2022-11-16T06:45:29.701Z,4.94
2022-11-16T06:47:58.135Z,4.97
2022-11-16T06:50:25.665Z,4.97
2022-11-16T06:52:53.561Z,4.96
2022-11-16T06:55:21.716Z,4.96
2022-11-16T06:57:49.281Z,4.96
2022-11-16T07:00:18.199Z,4.97
2022-11-16T07:02:46.376Z,4.95
2022-11-16T07:05:15.882Z,4.91
2022-11-16T07:07:43.476Z,4.88
2022-11-16T07:10:11.569Z,4.84
2022-11-16T07:12:39.270Z,4.78
2022-11-16T07:15:08.278Z,4.70
2022-11-16T07:17:36.907Z,4.59
2022-11-16T07:20:05.966Z,4.49
2022-11-16T07:22:33.994Z,4.44
2022-11-16T07:25:01.827Z,4.41
2022-11-16T07:27:29.453Z,4.39
2022-11-16T07:29:57.101Z,4.42
2022-11-16T07:32:26.757Z,4.51
2022-11-16T07:34:59.547Z,4.62
2022-11-16T07:37:28.072Z,4.72
2022-11-16T07:39:55.794Z,4.81
2022-11-16T07:42:23.700Z,4.88
2022-11-16T07:44:53.343Z,4.95
2022-11-16T07:47:20.729Z,5.07
2022-11-16T07:49:48.782Z,5.18
2022-11-16T07:52:18.384Z,5.31
2022-11-16T07:55:01.099Z,5.40
2022-11-16T07:57:29.127Z,5.52
2022-11-16T07:59:58.512Z,5.62
2022-11-16T08:02:26.742Z,5.76
2022-11-16T08:04:54.647Z,5.82
2022-11-16T08:07:24.330Z,5.87
2022-11-16T08:09:53.943Z,5.94
2022-11-16T08:12:22.279Z,5.98
2022-11-16T08:14:50.391Z,6.04
2022-11-16T08:17:18.346Z,6.10
2022-11-16T08:19:45.739Z,6.17
2022-11-16T08:22:15.365Z,6.21
2022-11-16T08:24:42.995Z,6.27
2022-11-16T08:27:10.626Z,6.32
2022-11-16T08:29:38.341Z,6.40
2022-11-16T08:32:07.335Z,6.48
2022-11-16T08:34:35.361Z,6.52
2022-11-16T08:37:04.411Z,6.53
2022-11-16T08:39:40.073Z,6.54
2022-11-16T08:42:07.944Z,6.54
2022-11-16T08:44:35.935Z,6.53
2022-11-16T08:47:05.462Z,6.55
2022-11-16T08:49:38.025Z,6.57
2022-11-16T08:52:05.939Z,6.58
2022-11-16T08:54:34.022Z,6.60
2022-11-16T08:57:01.756Z,6.63
2022-11-16T08:59:30.383Z,6.63
2022-11-16T09:02:00.116Z,6.66
2022-11-16T09:04:31.503Z,6.74
2022-11-16T09:06:57.720Z,6.83
2022-11-16T09:09:25.821Z,6.86
2022-11-16T09:11:55.130Z,6.91
2022-11-16T09:14:22.795Z,6.94
2022-11-16T09:16:50.480Z,6.90
2022-11-16T09:19:18.414Z,6.87
2022-11-16T09:21:45.881Z,6.90
2022-11-16T09:24:13.389Z,6.95
2022-11-16T09:26:41.127Z,6.94
2022-11-16T09:29:14.729Z,6.98
2022-11-16T09:31:42.177Z,7.02
2022-11-16T09:34:09.909Z,7.06
2022-11-16T09:36:37.346Z,7.07
2022-11-16T09:42:07.878Z,7.12
2022-11-16T09:44:55.720Z,7.14
2022-11-16T09:47:58.967Z,7.18
2022-11-16T09:50:44.055Z,7.24
2022-11-16T09:53:35.451Z,7.30
2022-11-16T09:56:08.561Z,7.37
2022-11-16T09:58:44.550Z,7.42
2022-11-16T10:01:44.241Z,7.43
2022-11-16T10:04:23.420Z,7.44
2022-11-16T10:07:16.900Z,7.46
2022-11-16T10:09:46.307Z,7.48
2022-11-16T10:12:25.156Z,7.51
2022-11-16T10:15:16.473Z,7.56
2022-11-16T10:18:04.352Z,7.60
2022-11-16T10:20:51.914Z,7.67
2022-11-16T10:23:53.722Z,7.76
2022-11-16T10:26:51.223Z,7.83
2022-11-16T10:29:42.672Z,7.83
2022-11-16T10:32:28.409Z,7.75
2022-11-16T10:35:13.276Z,7.78
2022-11-16T10:37:50.372Z,7.82
2022-11-16T10:40:29.109Z,7.87
2022-11-16T10:43:17.422Z,7.92
2022-11-16T10:45:59.744Z,7.94
2022-11-16T10:48:59.335Z,7.94
2022-11-16T10:51:27.123Z,7.92
2022-11-16T10:53:55.571Z,7.93
2022-11-16T10:56:34.799Z,7.97
2022-11-16T10:59:09.267Z,8.00
2022-11-16T11:01:40.933Z,8.05
2022-11-16T11:04:30.791Z,8.04
2022-11-16T11:07:23.912Z,8.05
2022-11-16T11:09:55.376Z,8.07
2022-11-16T11:12:37.472Z,8.02
2022-11-16T11:15:25.843Z,8.01
2022-11-16T11:18:16.964Z,8.00
2022-11-16T11:20:52.825Z,8.04
2022-11-16T11:23:24.715Z,8.09
2022-11-16T11:25:59.090Z,8.06
2022-11-16T11:28:38.732Z,8.02
2022-11-16T11:31:24.964Z,8.05
2022-11-16T11:33:59.520Z,8.13
2022-11-16T11:36:35.581Z,8.24
2022-11-16T11:39:18.067Z,8.35
2022-11-16T11:42:02.385Z,8.43
2022-11-16T11:44:58.390Z,8.50
2022-11-16T11:48:00.264Z,8.52
2022-11-16T11:50:51.821Z,8.47
2022-11-16T11:53:51.802Z,8.43
2022-11-16T11:56:19.675Z,8.39
2022-11-16T11:58:48.946Z,8.38
2022-11-16T12:01:43.448Z,8.39
2022-11-16T12:04:59.387Z,8.44
2022-11-16T12:07:38.474Z,8.55
2022-11-16T12:10:41.770Z,8.62
2022-11-16T12:13:23.944Z,8.69
2022-11-16T12:16:11.464Z,8.68
2022-11-16T12:19:18.170Z,8.67
2022-11-16T12:21:57.210Z,8.67
2022-11-16T12:24:48.351Z,8.63
2022-11-16T12:27:30.340Z,8.65
2022-11-16T12:30:17.404Z,8.65
2022-11-16T12:33:22.970Z,8.68
2022-11-16T12:36:16.719Z,8.74
2022-11-16T12:39:12.767Z,8.81
2022-11-16T12:41:54.730Z,8.89
2022-11-16T12:44:47.336Z,8.95
2022-11-16T12:47:43.400Z,8.99
2022-11-16T12:51:06.525Z,9.03
2022-11-16T12:54:10.376Z,9.10
2022-11-16T12:57:10.455Z,9.20
2022-11-16T13:00:01.432Z,9.22
2022-11-16T13:02:58.245Z,9.20
2022-11-16T13:05:31.214Z,9.18
2022-11-16T13:08:07.369Z,9.14
2022-11-16T13:10:41.191Z,9.12
2022-11-16T13:15:48.055Z,8.97
2022-11-16T13:18:19.580Z,8.92
2022-11-16T13:21:04.447Z,8.92
2022-11-16T13:23:52.536Z,8.92
2022-11-16T13:26:28.553Z,8.90
2022-11-16T13:29:13.633Z,8.90
2022-11-16T13:32:13.939Z,8.90
2022-11-16T13:34:42.063Z,8.88
2022-11-16T13:37:41.206Z,8.86
2022-11-16T13:43:12.806Z,8.83
2022-11-16T13:45:57.612Z,8.83
2022-11-16T13:48:38.098Z,8.81
2022-11-16T13:51:11.103Z,8.79
2022-11-16T13:54:43.347Z,8.82
2022-11-16T13:56:28.345Z,8.84
2022-11-16T13:58:54.697Z,8.89
2022-11-16T14:01:23.415Z,8.95
2022-11-16T14:03:52.626Z,8.99
2022-11-16T14:06:25.818Z,9.03
2022-11-16T14:08:58.941Z,9.10
2022-11-16T14:11:36.945Z,9.16
2022-11-16T14:14:10.634Z,9.20
2022-11-16T14:16:50.076Z,9.24
2022-11-16T14:19:49.352Z,9.27
2022-11-16T14:22:39.236Z,9.26
2022-11-16T14:25:14.902Z,9.19
2022-11-16T14:28:03.283Z,9.14
2022-11-16T14:30:35.649Z,9.06
2022-11-16T14:33:03.444Z,8.97
2022-11-16T14:35:38.854Z,8.90
2022-11-16T14:38:27.595Z,8.84
2022-11-16T14:40:59.668Z,8.78
2022-11-16T14:43:43.281Z,8.76
2022-11-16T14:46:27.995Z,8.75
2022-11-16T14:48:58.279Z,8.75
2022-11-16T14:51:35.679Z,8.73
2022-11-16T14:54:23.355Z,8.70
2022-11-16T14:57:04.500Z,8.67
2022-11-16T14:59:32.916Z,8.64
2022-11-16T15:02:06.273Z,8.60
2022-11-16T15:04:33.991Z,8.59
2022-11-16T15:07:03.975Z,8.59
2022-11-16T15:09:38.775Z,8.60
2022-11-16T15:12:34.831Z,8.61
2022-11-16T15:15:16.490Z,8.63
2022-11-16T15:17:48.781Z,8.67
2022-11-16T15:20:23.356Z,8.70
2022-11-16T15:22:57.137Z,8.72
2022-11-16T15:25:54.287Z,8.78
2022-11-16T15:28:28.548Z,8.82
2022-11-16T15:31:03.952Z,8.85
2022-11-16T15:33:40.099Z,8.84
2022-11-16T15:36:31.517Z,8.83
2022-11-16T15:39:02.388Z,8.81
2022-11-16T15:41:30.095Z,8.76
2022-11-16T15:44:16.361Z,8.73
2022-11-16T15:46:33.611Z,8.71
2022-11-16T15:49:01.964Z,8.71
2022-11-16T15:51:31.172Z,8.70
2022-11-16T15:54:27.963Z,8.67
2022-11-16T15:57:00.611Z,8.63
2022-11-16T15:59:32.209Z,8.60
2022-11-16T16:01:59.804Z,8.55
2022-11-16T16:04:28.538Z,8.52
2022-11-16T16:06:59.149Z,8.44
2022-11-16T16:09:40.004Z,8.40
2022-11-16T16:12:26.439Z,8.35
2022-11-16T16:14:59.664Z,8.34
2022-11-16T16:17:30.826Z,8.31
2022-11-16T16:20:01.661Z,8.28
2022-11-16T16:22:38.616Z,8.27
2022-11-16T16:25:25.609Z,8.28
2022-11-16T16:27:53.049Z,8.30
2022-11-16T16:30:21.185Z,8.36
2022-11-16T16:32:50.976Z,8.42
2022-11-16T16:35:24.532Z,8.49
2022-11-16T16:37:58.563Z,8.57
2022-11-16T16:40:29.060Z,8.62
2022-11-16T16:42:57.364Z,8.65
2022-11-16T16:45:39.389Z,8.65
2022-11-16T16:48:12.084Z,8.67
2022-11-16T16:50:40.451Z,8.66
2022-11-16T16:53:12.253Z,8.62
2022-11-16T16:55:40.853Z,8.60
2022-11-16T16:58:11.908Z,8.59
2022-11-16T17:00:40.671Z,8.57
2022-11-16T17:03:08.307Z,8.58
2022-11-16T17:05:36.783Z,8.56
2022-11-16T17:08:04.657Z,8.56
2022-11-16T17:10:32.127Z,8.55
2022-11-16T17:13:02.749Z,8.51
2022-11-16T17:15:30.412Z,8.49
2022-11-16T17:17:59.514Z,8.47
2022-11-16T17:20:27.780Z,8.43
2022-11-16T17:22:55.597Z,8.40
2022-11-16T17:25:23.250Z,8.36
2022-11-16T17:27:51.593Z,8.31
2022-11-16T17:30:19.206Z,8.26
2022-11-16T17:32:46.655Z,8.21
2022-11-16T17:35:14.263Z,8.15
2022-11-16T17:37:41.971Z,8.14
2022-11-16T17:40:11.021Z,8.15
2022-11-16T17:42:38.731Z,8.13
2022-11-16T17:45:07.442Z,8.15
2022-11-16T17:47:35.093Z,8.16
2022-11-16T17:50:03.781Z,8.15
2022-11-16T17:52:31.362Z,8.20
2022-11-16T17:54:58.752Z,8.25
2022-11-16T17:57:26.296Z,8.30
2022-11-16T17:59:53.783Z,8.32
2022-11-16T18:02:21.268Z,8.30
2022-11-16T18:04:51.271Z,8.27
2022-11-16T18:07:18.361Z,8.24
2022-11-16T18:09:46.057Z,8.23
2022-11-16T18:12:13.466Z,8.20
2022-11-16T18:14:42.458Z,8.18
2022-11-16T18:17:09.937Z,8.13
2022-11-16T18:19:37.422Z,8.08
2022-11-16T18:22:04.882Z,8.02
2022-11-16T18:24:32.816Z,7.99
2022-11-16T18:27:00.485Z,7.99
2022-11-16T18:29:28.097Z,7.99
2022-11-16T18:31:56.298Z,7.95
2022-11-16T18:34:23.824Z,7.91
2022-11-16T18:36:51.620Z,7.89
2022-11-16T18:39:18.963Z,7.85
2022-11-16T18:41:54.762Z,7.84
2022-11-16T18:44:19.971Z,7.82
2022-11-16T18:46:47.414Z,7.82
2022-11-16T18:49:15.357Z,7.80
2022-11-16T18:51:42.717Z,7.78
2022-11-16T18:54:10.212Z,7.77
2022-11-16T18:56:37.919Z,7.80
2022-11-16T18:59:05.377Z,7.81
2022-11-16T19:01:33.122Z,7.85
2022-11-16T19:04:01.188Z,7.91
2022-11-16T19:06:33.545Z,7.99
2022-11-16T19:09:03.024Z,8.07
2022-11-16T19:11:30.639Z,8.14
2022-11-16T19:14:00.261Z,8.23
2022-11-16T19:16:28.157Z,8.26
2022-11-16T19:18:56.115Z,8.31
2022-11-16T19:21:24.068Z,8.33
2022-11-16T19:23:54.963Z,8.33
2022-11-16T19:26:26.279Z,8.30
2022-11-16T19:28:54.420Z,8.25
2022-11-16T19:31:28.593Z,8.19
2022-11-16T19:34:02.296Z,8.12
2022-11-16T19:36:30.426Z,8.07
2022-11-16T19:38:58.360Z,8.05
2022-11-16T19:41:27.007Z,8.02
2022-11-16T19:43:59.255Z,8.00
2022-11-16T19:46:29.615Z,7.94
2022-11-16T19:48:58.539Z,7.89
2022-11-16T19:51:32.238Z,7.86
2022-11-16T19:54:00.393Z,7.82
2022-11-16T19:56:28.532Z,7.82
2022-11-16T19:58:56.804Z,7.80
2022-11-16T20:01:28.299Z,7.78
2022-11-16T20:03:59.186Z,7.78
2022-11-16T20:06:35.910Z,7.75
2022-11-16T20:09:08.348Z,7.73
2022-11-16T20:11:38.231Z,7.73
2022-11-16T20:14:09.376Z,7.74
2022-11-16T20:16:40.133Z,7.76
2022-11-16T20:19:09.567Z,7.78
2022-11-16T20:21:42.872Z,7.79
2022-11-16T20:24:14.845Z,7.84
2022-11-16T20:26:46.173Z,7.89
2022-11-16T20:29:16.206Z,7.93
2022-11-16T20:31:45.613Z,8.01
2022-11-16T20:34:16.084Z,8.10
2022-11-16T20:36:46.196Z,8.18
2022-11-16T20:39:17.808Z,8.25
2022-11-16T20:41:46.159Z,8.25
2022-11-16T20:44:20.431Z,8.26
2022-11-16T20:46:51.215Z,8.23
2022-11-16T20:49:18.942Z,8.22
2022-11-16T20:51:47.856Z,8.19
2022-11-16T20:54:15.584Z,8.18
2022-11-16T20:56:44.058Z,8.14
2022-11-16T20:59:11.723Z,8.12
2022-11-16T21:01:41.192Z,8.12
2022-11-16T21:04:10.348Z,8.09
2022-11-16T21:06:37.662Z,8.06
2022-11-16T21:09:05.256Z,8.01
2022-11-16T21:11:35.415Z,7.98
2022-11-16T21:14:18.049Z,7.94
2022-11-16T21:16:45.545Z,7.92
2022-11-16T21:19:13.225Z,7.90
2022-11-16T21:21:41.437Z,7.86
2022-11-16T21:24:09.628Z,7.83
2022-11-16T21:26:37.676Z,7.82
2022-11-16T21:29:06.110Z,7.79
2022-11-16T21:31:35.936Z,7.82
2022-11-16T21:34:05.363Z,7.86
2022-11-16T21:36:33.667Z,7.91
2022-11-16T21:39:01.488Z,7.97
2022-11-16T21:41:29.060Z,8.01
2022-11-16T21:43:56.794Z,8.06
2022-11-16T21:46:26.986Z,8.13
2022-11-16T21:48:55.747Z,8.21
2022-11-16T21:51:25.690Z,8.30
2022-11-16T21:53:53.676Z,8.33
2022-11-16T21:56:24.253Z,8.35
2022-11-16T21:58:53.591Z,8.37
2022-11-16T22:01:22.845Z,8.36
2022-11-16T22:03:52.956Z,8.39
2022-11-16T22:06:39.216Z,8.38
2022-11-16T22:09:06.706Z,8.35
2022-11-16T22:11:34.228Z,8.32
2022-11-16T22:14:01.699Z,8.31
2022-11-16T22:16:30.136Z,8.29
2022-11-16T22:18:57.871Z,8.28
2022-11-16T22:21:25.425Z,8.30
2022-11-16T22:23:53.803Z,8.28
2022-11-16T22:26:21.215Z,8.24
2022-11-16T22:28:48.925Z,8.20
2022-11-16T22:31:16.611Z,8.17
2022-11-16T22:33:44.039Z,8.13
2022-11-16T22:36:12.838Z,8.10
2022-11-16T22:38:40.518Z,8.05
2022-11-16T22:41:08.846Z,8.03
2022-11-16T22:43:37.084Z,8.02
2022-11-16T22:46:06.205Z,8.04
2022-11-16T22:48:37.260Z,8.06
2022-11-16T22:51:09.384Z,8.08
2022-11-16T22:53:37.196Z,8.10
2022-11-16T22:56:09.906Z,8.12
2022-11-16T22:58:38.621Z,8.17
2022-11-16T23:01:08.576Z,8.25
2022-11-16T23:03:37.558Z,8.29
2022-11-16T23:06:06.685Z,8.33
2022-11-16T23:08:35.954Z,8.38
2022-11-16T23:11:37.833Z,8.41
2022-11-16T23:14:27.877Z,8.43
2022-11-16T23:16:55.856Z,8.43
2022-11-16T23:19:42.047Z,8.42
2022-11-16T23:22:34.814Z,8.42
2022-11-16T23:25:22.157Z,8.43
2022-11-16T23:27:58.207Z,8.38
2022-11-16T23:30:26.040Z,8.33
2022-11-16T23:32:53.997Z,8.28
2022-11-16T23:35:22.426Z,8.25
2022-11-16T23:37:59.041Z,8.19
2022-11-16T23:40:37.063Z,8.14
2022-11-16T23:43:23.975Z,8.09
2022-11-16T23:45:51.547Z,8.06
2022-11-16T23:48:19.232Z,8.04
2022-11-16T23:50:47.642Z,8.01
2022-11-16T23:53:15.044Z,7.99
2022-11-16T23:55:42.816Z,7.97
2022-11-16T23:58:13.877Z,7.97
